createdAt,value
2022-07-29T00:07:56.646Z,15.3
2022-07-29T00:12:00.487Z,15.4
2022-07-29T00:14:02.392Z,15.4
2022-07-29T00:18:06.283Z,15.4
2022-07-29T00:20:11.324Z,15.4
2022-07-29T00:22:13.273Z,15.3
2022-07-29T00:24:15.639Z,15.2
2022-07-29T00:29:34.201Z,15.2
2022-07-29T00:31:23.595Z,15.4
2022-07-29T00:35:30.534Z,15.2
2022-07-29T00:39:34.388Z,15.2
2022-07-29T00:41:36.333Z,15.1
2022-07-29T00:43:38.289Z,15.1
2022-07-29T00:45:40.212Z,14.9
2022-07-29T00:47:45.279Z,14.9
2022-07-29T00:49:47.204Z,15
2022-07-29T00:51:49.156Z,15
2022-07-29T00:53:51.141Z,15
2022-07-29T00:55:53.022Z,15
2022-07-29T00:57:54.957Z,14.9
2022-07-29T00:59:56.894Z,14.9
2022-07-29T01:02:02.021Z,14.6
2022-07-29T01:04:03.926Z,15
2022-07-29T01:06:05.859Z,14.8
2022-07-29T01:08:07.828Z,15
2022-07-29T01:10:09.722Z,14.9
2022-07-29T01:12:11.678Z,14.8
2022-07-29T01:14:13.968Z,15
2022-07-29T01:16:18.780Z,14.8
2022-07-29T01:18:21.987Z,14.7
2022-07-29T01:20:22.556Z,14.8
2022-07-29T01:21:25.105Z,14.6
2022-07-29T01:25:28.952Z,14.7
2022-07-29T01:27:30.870Z,14.9
2022-07-29T01:29:38.825Z,14.8
2022-07-29T01:31:40.264Z,14.9
2022-07-29T01:35:43.327Z,14.7
2022-07-29T01:37:45.194Z,14.7
2022-07-29T01:39:47.132Z,14.8
2022-07-29T01:41:49.064Z,14.6
2022-07-29T01:43:54.150Z,14.6
2022-07-29T01:45:56.060Z,14.7
2022-07-29T01:47:57.986Z,14.8
2022-07-29T01:49:59.909Z,14.7
2022-07-29T01:52:01.847Z,14.8
2022-07-29T01:54:03.786Z,14.7
2022-07-29T01:56:05.759Z,14.7
2022-07-29T01:58:10.826Z,14.6
2022-07-29T02:00:12.743Z,14.7
2022-07-29T02:02:14.759Z,14.8
2022-07-29T02:04:29.498Z,14.7
2022-07-29T02:06:18.559Z,14.7
2022-07-29T02:08:20.499Z,14.6
2022-07-29T02:10:26.103Z,14.7
2022-07-29T02:12:27.537Z,14.8
2022-07-29T02:14:29.451Z,14.7
2022-07-29T02:16:31.642Z,14.8
2022-07-29T02:18:54.249Z,14.7
2022-07-29T02:25:03.791Z,14.7
2022-07-29T02:27:05.165Z,14.8
2022-07-29T02:29:07.035Z,14.8
2022-07-29T02:31:09.029Z,14.5
2022-07-29T02:35:12.873Z,14.7
2022-07-29T02:37:14.780Z,14.9
2022-07-29T02:39:19.889Z,14.8
2022-07-29T02:41:21.805Z,14.7
2022-07-29T02:43:23.760Z,14.8
2022-07-29T02:45:25.718Z,14.9
2022-07-29T02:47:27.639Z,14.9
2022-07-29T02:49:29.548Z,14.8
2022-07-29T02:51:41.442Z,14.8
2022-07-29T02:53:36.595Z,14.8
2022-07-29T02:55:38.551Z,14.8
2022-07-29T02:57:54.699Z,14.7
2022-07-29T02:59:42.407Z,14.9
2022-07-29T03:01:44.451Z,14.8
2022-07-29T03:05:48.219Z,14.9
2022-07-29T03:07:53.402Z,14.7
2022-07-29T03:09:55.359Z,14.7
2022-07-29T03:11:57.303Z,15
2022-07-29T03:12:59.827Z,14.9
2022-07-29T03:15:01.770Z,14.7
2022-07-29T03:17:03.675Z,14.8
2022-07-29T03:19:05.633Z,14.8
2022-07-29T03:23:12.648Z,14.7
2022-07-29T03:25:14.630Z,14.6
2022-07-29T03:27:16.541Z,14.9
2022-07-29T03:29:18.546Z,14.8
2022-07-29T03:33:22.526Z,14.9
2022-07-29T03:35:27.648Z,14.7
2022-07-29T03:37:29.657Z,14.7
2022-07-29T03:39:31.589Z,14.7
2022-07-29T03:41:33.524Z,14.9
2022-07-29T03:43:35.464Z,14.8
2022-07-29T03:45:37.408Z,14.7
2022-07-29T03:47:39.351Z,14.8
2022-07-29T03:49:44.522Z,14.8
2022-07-29T03:51:46.485Z,14.7
2022-07-29T03:53:48.391Z,15
2022-07-29T03:57:52.261Z,14.6
2022-07-29T03:59:54.214Z,14.6
2022-07-29T04:06:03.266Z,14.7
2022-07-29T04:08:05.215Z,14.7
2022-07-29T04:09:09.909Z,14.4
2022-07-29T04:11:09.813Z,14.4
2022-07-29T04:13:11.734Z,14.6
2022-07-29T04:15:13.797Z,14.4
2022-07-29T04:17:18.854Z,14.2
2022-07-29T04:19:20.805Z,14.2
2022-07-29T04:21:22.755Z,14.2
2022-07-29T04:25:26.729Z,14.1
2022-07-29T04:27:28.649Z,14.1
2022-07-29T04:29:30.639Z,14
2022-07-29T04:31:35.939Z,13.9
2022-07-29T04:33:37.724Z,14
2022-07-29T04:35:45.771Z,13.9
2022-07-29T04:37:41.841Z,13.8
2022-07-29T04:39:43.875Z,13.9
2022-07-29T04:41:45.866Z,13.9
2022-07-29T04:43:47.876Z,13.9
2022-07-29T04:45:53.262Z,13.8
2022-07-29T04:47:55.132Z,13.8
2022-07-29T04:49:57.178Z,13.9
2022-07-29T04:51:59.229Z,13.8
2022-07-29T04:54:01.266Z,13.7
2022-07-29T04:56:03.323Z,13.8
2022-07-29T04:58:05.380Z,13.8
2022-07-29T05:00:10.593Z,13.7
2022-07-29T05:02:12.673Z,13.8
2022-07-29T05:04:14.918Z,13.8
2022-07-29T05:05:17.187Z,13.7
2022-07-29T05:07:19.119Z,13.8
2022-07-29T05:09:21.178Z,13.6
2022-07-29T05:11:26.087Z,13.8
2022-07-29T05:13:28.410Z,13.6
2022-07-29T05:15:30.499Z,13.6
2022-07-29T05:17:32.502Z,13.6
2022-07-29T05:19:34.591Z,13.8
2022-07-29T05:21:36.634Z,13.6
2022-07-29T05:23:38.626Z,13.8
2022-07-29T05:25:44.093Z,13.6
2022-07-29T05:27:45.987Z,13.8
2022-07-29T05:29:48.038Z,14
2022-07-29T05:31:50.102Z,13.7
2022-07-29T05:33:52.123Z,13.9
2022-07-29T05:35:58.530Z,13.6
2022-07-29T05:37:56.132Z,13.9
2022-07-29T05:39:59.192Z,13.8
2022-07-29T05:42:03.457Z,13.9
2022-07-29T05:44:05.479Z,13.9
2022-07-29T05:46:07.340Z,14
2022-07-29T05:48:09.339Z,14
2022-07-29T05:50:11.397Z,14.1
2022-07-29T05:52:13.426Z,13.8
2022-07-29T05:54:15.810Z,13.9
2022-07-29T05:58:22.693Z,14
2022-07-29T06:00:24.779Z,14.2
2022-07-29T06:09:12.239Z,14.1
2022-07-29T06:13:07.080Z,14.2
2022-07-29T06:15:09.018Z,14.3
2022-07-29T06:17:10.964Z,14.4
2022-07-29T06:19:12.999Z,14.4
2022-07-29T06:21:15.026Z,14.4
2022-07-29T06:23:20.140Z,14.4
2022-07-29T06:25:22.081Z,14.4
2022-07-29T06:27:24.039Z,14.6
2022-07-29T06:29:26.056Z,14.5
2022-07-29T06:31:28.090Z,14.4
2022-07-29T06:35:38.891Z,14.7
2022-07-29T06:57:01.268Z,14.7
2022-07-29T06:59:03.344Z,14.6
2022-07-29T07:05:12.250Z,14.7
2022-07-29T07:07:14.200Z,14.9
2022-07-29T07:09:16.220Z,14.8
2022-07-29T07:11:18.148Z,14.8
2022-07-29T07:13:20.115Z,15
2022-07-29T07:15:22.047Z,14.8
2022-07-29T07:17:23.999Z,15
2022-07-29T07:19:29.062Z,14.9
2022-07-29T07:21:31.371Z,14.9
2022-07-29T07:23:33.045Z,14.8
2022-07-29T07:25:34.989Z,15
2022-07-29T07:27:38.475Z,15.1
2022-07-29T07:29:40.479Z,15
2022-07-29T07:31:42.462Z,15.1
2022-07-29T07:33:47.656Z,15.1
2022-07-29T07:35:49.723Z,15.3
2022-07-29T07:37:51.734Z,15.4
2022-07-29T07:39:53.669Z,15.3
2022-07-29T07:41:55.708Z,15.5
2022-07-29T07:43:57.645Z,15.3
2022-07-29T07:48:04.752Z,15.4
2022-07-29T07:52:08.617Z,15.6
2022-07-29T07:53:11.157Z,15.8
2022-07-29T07:55:13.124Z,15.8
2022-07-29T07:57:15.034Z,16
2022-07-29T07:59:16.948Z,16
2022-07-29T08:01:22.115Z,15.8
2022-07-29T08:03:23.968Z,15.9
2022-07-29T08:05:26.081Z,15.9
2022-07-29T08:07:27.818Z,16
2022-07-29T08:09:30.631Z,16.1
2022-07-29T08:13:33.584Z,16.4
2022-07-29T08:15:38.635Z,16.5
2022-07-29T08:17:40.587Z,16.4
2022-07-29T08:19:42.483Z,16.5
2022-07-29T08:21:44.439Z,16.4
2022-07-29T08:23:50.587Z,16.3
2022-07-29T08:27:50.249Z,16.3
2022-07-29T08:29:55.269Z,16.5
2022-07-29T08:31:57.276Z,16.5
2022-07-29T08:33:59.138Z,16.4
2022-07-29T08:38:02.945Z,16.5
2022-07-29T08:40:04.887Z,16.5
2022-07-29T08:42:06.790Z,16.4
2022-07-29T08:44:11.869Z,16.7
2022-07-29T08:46:13.879Z,16.7
2022-07-29T08:48:15.707Z,17.1
2022-07-29T08:49:18.358Z,16.9
2022-07-29T08:51:20.145Z,17.1
2022-07-29T08:53:22.065Z,17.1
2022-07-29T09:01:35.288Z,17.1
2022-07-29T09:03:34.872Z,17.2
2022-07-29T09:05:40.642Z,17.2
2022-07-29T09:07:38.633Z,17.2
2022-07-29T09:09:40.537Z,17.6
2022-07-29T09:11:45.565Z,17.6
2022-07-29T09:13:47.486Z,17.6
2022-07-29T09:15:49.410Z,17.7
2022-07-29T09:19:53.234Z,17.8
2022-07-29T09:21:55.150Z,17.8
2022-07-29T09:23:57.064Z,17.7
2022-07-29T09:26:02.146Z,17.3
2022-07-29T09:28:04.021Z,17.4
2022-07-29T09:32:07.874Z,17.8
2022-07-29T09:34:09.755Z,18
2022-07-29T09:36:11.678Z,18.2
2022-07-29T09:38:13.592Z,18
2022-07-29T09:40:18.662Z,18.2
2022-07-29T09:42:20.530Z,18.2
2022-07-29T09:44:22.430Z,18.2
2022-07-29T09:46:51.045Z,18.1
2022-07-29T09:48:52.970Z,18
2022-07-29T09:50:54.785Z,18.1
2022-07-29T09:52:59.835Z,18
2022-07-29T09:55:01.745Z,18.3
2022-07-29T09:57:03.841Z,18.3
2022-07-29T09:59:05.531Z,18.3
2022-07-29T10:01:07.495Z,18.4
2022-07-29T10:03:09.350Z,18.1
2022-07-29T10:05:11.206Z,18.4
2022-07-29T10:07:16.251Z,18.3
2022-07-29T10:09:18.157Z,18.4
2022-07-29T10:11:20.059Z,18.5
2022-07-29T10:15:23.838Z,18.5
2022-07-29T10:17:25.702Z,18.5
2022-07-29T10:19:27.592Z,18.4
2022-07-29T10:21:35.249Z,18.6
2022-07-29T10:25:36.393Z,18.5
2022-07-29T10:27:38.288Z,18.6
2022-07-29T10:29:40.168Z,18.8
2022-07-29T10:31:42.172Z,18.7
2022-07-29T10:35:48.972Z,18.6
2022-07-29T10:37:50.878Z,18.8
2022-07-29T10:39:52.755Z,18.9
2022-07-29T10:44:59.027Z,19.1
2022-07-29T10:47:00.997Z,19.2
2022-07-29T10:49:06.001Z,19
2022-07-29T10:51:07.795Z,18.8
2022-07-29T10:53:09.687Z,19
2022-07-29T10:55:11.550Z,19.3
2022-07-29T10:57:13.427Z,19.3
2022-07-29T11:03:22.233Z,19.4
2022-07-29T11:09:37.420Z,19.4
2022-07-29T11:11:30.012Z,19.2
2022-07-29T11:13:31.560Z,19.6
2022-07-29T11:15:33.418Z,19.4
2022-07-29T11:19:42.416Z,19.5
2022-07-29T11:21:53.686Z,19.5
2022-07-29T11:25:50.610Z,19.6
2022-07-29T11:27:48.096Z,19.7
2022-07-29T11:29:49.806Z,19.5
2022-07-29T11:31:54.925Z,19.8
2022-07-29T11:33:56.963Z,19.8
2022-07-29T11:36:00.884Z,20.1
2022-07-29T11:37:00.888Z,20.2
2022-07-29T11:39:02.777Z,19.9
2022-07-29T11:49:15.474Z,20.3
2022-07-29T11:53:18.959Z,20.4
2022-07-29T11:55:20.819Z,20.3
2022-07-29T11:57:22.619Z,20.1
2022-07-29T11:59:32.917Z,19.9
2022-07-29T12:01:29.457Z,20.1
2022-07-29T12:03:33.300Z,20
2022-07-29T12:05:36.961Z,20.1
2022-07-29T12:07:37.474Z,20.1
2022-07-29T12:11:38.743Z,20.1
2022-07-29T12:13:43.802Z,20.4
2022-07-29T12:17:47.455Z,20.7
2022-07-29T12:21:56.585Z,20.6
2022-07-29T12:27:59.895Z,21.1
2022-07-29T12:30:01.729Z,21.2
2022-07-29T12:33:06.083Z,20.8
2022-07-29T12:35:07.938Z,20.8
2022-07-29T12:37:09.786Z,21.2
2022-07-29T12:39:11.615Z,21.5
2022-07-29T12:41:16.666Z,21.6
2022-07-29T12:43:18.499Z,21.4
2022-07-29T12:45:20.357Z,21.6
2022-07-29T12:47:22.201Z,21.8
2022-07-29T12:49:24.198Z,22.2
2022-07-29T12:51:25.876Z,22.4
2022-07-29T12:53:27.696Z,22.4
2022-07-29T12:55:32.708Z,21.9
2022-07-29T12:57:34.657Z,21.9
2022-07-29T12:59:36.355Z,21.9
2022-07-29T13:01:38.192Z,21.9
2022-07-29T13:03:40.011Z,22.1
2022-07-29T13:05:45.677Z,22.5
2022-07-29T13:07:55.070Z,22.7
2022-07-29T13:09:48.660Z,22.5
2022-07-29T13:11:50.482Z,22.4
2022-07-29T13:14:05.970Z,22.5
2022-07-29T13:15:54.117Z,22.7
2022-07-29T13:17:55.933Z,22.9
2022-07-29T13:19:59.318Z,22.9
2022-07-29T13:22:01.376Z,22.7
2022-07-29T13:24:06.054Z,22.7
2022-07-29T13:26:07.883Z,22.9
2022-07-29T13:28:09.721Z,22.6
2022-07-29T13:30:38.259Z,22.7
2022-07-29T13:38:48.442Z,22.8
2022-07-29T13:40:50.962Z,22.7
2022-07-29T13:44:54.572Z,23.2
2022-07-29T13:46:56.411Z,23.2
2022-07-29T13:48:58.317Z,23.1
2022-07-29T13:53:04.941Z,23.5
2022-07-29T13:55:06.758Z,23.4
2022-07-29T13:57:08.547Z,23.8
2022-07-29T13:59:10.343Z,23.5
2022-07-29T14:01:12.193Z,23.4
2022-07-29T14:03:13.909Z,23.6
2022-07-29T14:05:18.872Z,23.7
2022-07-29T14:07:20.656Z,23.8
2022-07-29T14:09:22.462Z,24
2022-07-29T14:11:24.244Z,24.2
2022-07-29T14:13:26.471Z,23.6
2022-07-29T14:15:27.819Z,23.5
2022-07-29T14:17:29.684Z,23.6
2022-07-29T14:19:34.547Z,23.9
2022-07-29T14:21:36.326Z,23.9
2022-07-29T14:24:40.580Z,23.9
2022-07-29T14:26:42.356Z,23.6
2022-07-29T14:28:44.142Z,23.5
2022-07-29T14:30:45.903Z,23.3
2022-07-29T14:32:50.868Z,23.9
2022-07-29T14:34:52.642Z,24.4
2022-07-29T14:36:54.431Z,25
2022-07-29T14:38:56.195Z,25.3
2022-07-29T14:40:57.972Z,25.4
2022-07-29T14:42:59.743Z,25.6
2022-07-29T14:45:01.493Z,25.8
2022-07-29T14:47:07.972Z,25.6
2022-07-29T14:49:08.237Z,25.8
2022-07-29T14:51:09.980Z,26.3
2022-07-29T14:53:11.723Z,26.3
2022-07-29T14:55:16.545Z,26.7
2022-07-29T14:59:16.875Z,26.5
2022-07-29T15:01:21.868Z,27.2
2022-07-29T15:03:24.425Z,27.1
2022-07-29T15:05:25.201Z,28
2022-07-29T15:07:26.996Z,27.9
2022-07-29T15:09:28.584Z,27.3
2022-07-29T15:11:30.288Z,27.6
2022-07-29T15:13:31.924Z,27
2022-07-29T15:15:36.796Z,27.7
2022-07-29T15:17:38.453Z,28.1
2022-07-29T15:19:44.987Z,28.1
2022-07-29T15:20:42.549Z,28.5
2022-07-29T15:22:44.187Z,28.7
2022-07-29T15:24:45.859Z,28.2
2022-07-29T15:26:47.494Z,28.3
2022-07-29T15:28:52.322Z,28.6
2022-07-29T15:30:53.956Z,28.6
2022-07-29T15:34:57.216Z,28.1
2022-07-29T15:39:00.504Z,28.5
2022-07-29T15:41:02.086Z,29.2
2022-07-29T15:43:07.017Z,30
2022-07-29T15:45:08.538Z,29.7
2022-07-29T15:47:10.152Z,27.4
2022-07-29T15:49:11.824Z,28.3
2022-07-29T15:51:13.387Z,29
2022-07-29T15:53:15.029Z,28.5
2022-07-29T15:57:21.462Z,27.3
2022-07-29T16:03:26.306Z,25.8
2022-07-29T16:05:27.927Z,25.5
2022-07-29T16:07:31.511Z,25.5
2022-07-29T16:09:31.193Z,25.4
2022-07-29T16:11:36.016Z,25.6
2022-07-29T16:13:37.663Z,25.7
2022-07-29T16:15:39.299Z,25.6
2022-07-29T16:16:41.734Z,25.5
2022-07-29T16:18:43.321Z,25.7
2022-07-29T16:20:44.976Z,25.5
2022-07-29T16:22:46.615Z,25.8
2022-07-29T16:24:51.457Z,25.9
2022-07-29T16:26:53.099Z,25.7
2022-07-29T16:28:54.755Z,25.6
2022-07-29T16:30:56.401Z,25.7
2022-07-29T16:32:58.047Z,25.8
2022-07-29T16:34:59.725Z,25.6
2022-07-29T16:37:02.028Z,25.1
2022-07-29T16:39:06.254Z,24.7
2022-07-29T16:41:07.947Z,24.6
2022-07-29T16:43:09.648Z,24.5
2022-07-29T16:45:11.310Z,24.4
2022-07-29T16:47:13.005Z,24.3
2022-07-29T16:49:19.041Z,24.4
2022-07-29T16:51:16.405Z,24.3
2022-07-29T16:53:21.284Z,24
2022-07-29T16:55:22.988Z,23.8
2022-07-29T17:01:28.268Z,23.8
2022-07-29T17:03:29.895Z,23.8
2022-07-29T17:09:38.297Z,23.8
2022-07-29T17:11:52.834Z,23.6
2022-07-29T17:14:09.036Z,23.8
2022-07-29T17:16:10.181Z,23.8
2022-07-29T17:18:12.668Z,23.8
2022-07-29T17:20:17.651Z,23.6
2022-07-29T17:22:19.435Z,23.7
2022-07-29T17:24:20.353Z,23.8
2022-07-29T17:26:22.088Z,23.9
2022-07-29T17:28:23.873Z,23.7
2022-07-29T17:30:25.621Z,23.9
2022-07-29T17:32:27.391Z,23.7
2022-07-29T17:34:32.341Z,23.8
2022-07-29T17:36:34.087Z,23.5
2022-07-29T17:40:37.624Z,23.5
2022-07-29T17:42:39.366Z,23.6
2022-07-29T17:44:41.152Z,23.7
2022-07-29T17:46:43.017Z,23.8
2022-07-29T17:48:47.926Z,23.5
2022-07-29T17:50:49.651Z,23.6
2022-07-29T17:52:51.410Z,23.6
2022-07-29T17:54:53.190Z,23.7
2022-07-29T17:56:55.495Z,23.5
2022-07-29T17:58:56.751Z,23.6
2022-07-29T18:00:58.571Z,23.8
2022-07-29T18:03:03.507Z,23.8
2022-07-29T18:05:05.245Z,23.4
2022-07-29T18:07:07.025Z,23.5
2022-07-29T18:08:09.507Z,23.5
2022-07-29T18:12:13.049Z,23.4
2022-07-29T18:16:19.975Z,23.4
2022-07-29T18:18:21.578Z,23.3
2022-07-29T18:20:23.352Z,23.1
2022-07-29T18:22:25.131Z,23.2
2022-07-29T18:24:26.921Z,23
2022-07-29T18:26:30.476Z,22.9
2022-07-29T18:28:30.484Z,22.9
2022-07-29T18:30:35.447Z,22.5
2022-07-29T18:32:37.229Z,22.9
2022-07-29T18:34:39.026Z,22.8
2022-07-29T18:36:40.793Z,22.6
2022-07-29T18:38:42.594Z,22.6
2022-07-29T18:40:44.369Z,22.7
2022-07-29T18:42:46.154Z,22.5
2022-07-29T18:44:51.162Z,22.6
2022-07-29T18:52:58.513Z,22.3
2022-07-29T18:55:00.141Z,22.4
2022-07-29T18:57:02.067Z,22.2
2022-07-29T18:59:06.885Z,22.3
2022-07-29T19:04:13.004Z,22.2
2022-07-29T19:10:19.959Z,22.1
2022-07-29T19:18:30.314Z,22
2022-07-29T19:22:33.923Z,22
2022-07-29T19:24:35.748Z,22
2022-07-29T19:26:40.732Z,21.8
2022-07-29T19:28:42.547Z,21.6
2022-07-29T19:30:44.357Z,21.6
2022-07-29T19:32:46.181Z,21.5
2022-07-29T19:34:49.827Z,21.6
2022-07-29T19:36:49.841Z,21.3
2022-07-29T19:38:51.669Z,21.3
2022-07-29T19:40:56.614Z,21.3
2022-07-29T19:42:58.473Z,21.1
2022-07-29T19:45:00.282Z,21
2022-07-29T19:47:02.157Z,21
2022-07-29T19:51:05.743Z,20.8
2022-07-29T19:53:07.590Z,20.7
2022-07-29T19:59:16.246Z,20.5
2022-07-29T20:00:21.045Z,20.3
2022-07-29T20:02:20.710Z,20.3
2022-07-29T20:04:22.432Z,20.5
2022-07-29T20:06:24.252Z,20.3
2022-07-29T20:08:29.270Z,20.1
2022-07-29T20:10:31.082Z,20
2022-07-29T20:12:32.903Z,20.1
2022-07-29T20:14:34.760Z,20.1
2022-07-29T20:16:36.590Z,20.1
2022-07-29T20:18:38.430Z,19.9
2022-07-29T20:20:40.253Z,19.6
2022-07-29T20:24:47.115Z,19.8
2022-07-29T20:26:48.930Z,19.5
2022-07-29T20:30:52.681Z,19.6
2022-07-29T20:32:54.449Z,19.3
2022-07-29T20:34:56.295Z,19.4
2022-07-29T20:37:01.759Z,19.2
2022-07-29T20:39:03.125Z,19.3
2022-07-29T20:41:04.991Z,19.3
2022-07-29T20:43:06.836Z,19.2
2022-07-29T20:45:08.860Z,19.1
2022-07-29T20:47:10.534Z,19.1
2022-07-29T20:51:17.368Z,18.9
2022-07-29T20:53:19.236Z,19
2022-07-29T20:55:21.096Z,18.8
2022-07-29T20:59:51.459Z,18.7
2022-07-29T21:03:58.322Z,18.7
2022-07-29T21:14:07.619Z,18.6
2022-07-29T21:18:14.505Z,18.7
2022-07-29T21:20:16.363Z,18.6
2022-07-29T21:22:18.222Z,18.6
2022-07-29T21:24:20.097Z,18.7
2022-07-29T21:26:21.968Z,18.6
2022-07-29T21:28:23.824Z,18.6
2022-07-29T21:30:25.707Z,18.7
2022-07-29T21:32:30.763Z,18.5
2022-07-29T21:34:32.608Z,18.4
2022-07-29T21:36:48.736Z,18.5
2022-07-29T21:38:36.337Z,18.6
2022-07-29T21:40:38.209Z,18.6
2022-07-29T21:42:40.085Z,18.4
2022-07-29T21:44:41.955Z,18.5
2022-07-29T21:46:46.982Z,18.4
2022-07-29T21:48:48.873Z,18.3
2022-07-29T22:00:03.942Z,18.2
2022-07-29T22:02:05.801Z,18.3
2022-07-29T22:04:07.717Z,18.1
2022-07-29T22:06:11.211Z,18
2022-07-29T22:08:11.418Z,18
2022-07-29T22:10:13.285Z,17.9
2022-07-29T22:12:15.162Z,17.9
2022-07-29T22:14:20.209Z,18
2022-07-29T22:18:23.968Z,17.8
2022-07-29T22:20:25.858Z,17.8
2022-07-29T22:22:27.750Z,17.8
2022-07-29T22:24:29.655Z,17.9
2022-07-29T22:26:31.536Z,18
2022-07-29T22:28:36.597Z,17.8
2022-07-29T22:30:38.561Z,17.9
2022-07-29T22:32:40.333Z,17.8
2022-07-29T22:34:42.219Z,17.7
2022-07-29T22:36:44.112Z,17.7
2022-07-29T22:38:50.253Z,17.7
2022-07-29T22:40:48.616Z,17.6
2022-07-29T22:42:52.959Z,17.5
2022-07-29T22:44:54.848Z,17.6
2022-07-29T22:46:57.108Z,17.5
2022-07-29T22:47:59.495Z,17.4
2022-07-29T22:50:01.140Z,17.6
2022-07-29T22:54:04.931Z,17.6
2022-07-29T22:56:09.950Z,17.5
2022-07-29T22:58:11.865Z,17.4
2022-07-29T23:02:15.644Z,17.5
2022-07-29T23:04:17.551Z,17.3
2022-07-29T23:06:19.421Z,17.2
2022-07-29T23:08:21.380Z,17.4
2022-07-29T23:10:26.433Z,17.3
2022-07-29T23:14:30.195Z,17.5
2022-07-29T23:16:32.158Z,17.5
2022-07-29T23:18:34.010Z,17.2
2022-07-29T23:20:35.865Z,17.3
2022-07-29T23:22:37.801Z,17.3
2022-07-29T23:24:42.829Z,17.2
2022-07-29T23:26:44.722Z,17.2
2022-07-29T23:28:46.626Z,17.1
2022-07-29T23:30:48.579Z,17.2
2022-07-29T23:32:50.439Z,17.1
2022-07-29T23:34:52.323Z,17.3
2022-07-29T23:36:54.218Z,17.2
2022-07-29T23:38:59.281Z,17.1
2022-07-29T23:41:01.157Z,17.1
2022-07-29T23:43:03.073Z,17.1
2022-07-29T23:44:05.601Z,17.2
2022-07-29T23:46:07.560Z,17.1
2022-07-29T23:48:09.428Z,17
2022-07-29T23:50:11.327Z,17.1
2022-07-29T23:52:16.353Z,17
2022-07-29T23:54:18.280Z,16.9
2022-07-29T23:56:20.191Z,17.1
2022-07-29T23:58:22.098Z,16.8
